地図

経路データ

SID SEASON NUMBER BASIN SUBBASIN NAME ISO_TIME NATURE LAT LON WMO_WIND WMO_PRES WMO_AGENCY TRACK_TYPE DIST2LAND LANDFALL IFLAG USA_AGENCY USA_ATCF_ID USA_LAT USA_LON USA_RECORD USA_STATUS USA_WIND USA_PRES USA_SSHS USA_R34_NE USA_R34_SE USA_R34_SW USA_R34_NW USA_R50_NE USA_R50_SE USA_R50_SW USA_R50_NW USA_R64_NE USA_R64_SE USA_R64_SW USA_R64_NW USA_POCI USA_ROCI USA_RMW USA_EYE TOKYO_LAT TOKYO_LON TOKYO_GRADE TOKYO_WIND TOKYO_PRES TOKYO_R50_DIR TOKYO_R50_LONG TOKYO_R50_SHORT TOKYO_R30_DIR TOKYO_R30_LONG TOKYO_R30_SHORT TOKYO_LAND CMA_LAT CMA_LON CMA_CAT CMA_WIND CMA_PRES HKO_LAT HKO_LON HKO_CAT HKO_WIND HKO_PRES NEWDELHI_LAT NEWDELHI_LON NEWDELHI_GRADE NEWDELHI_WIND NEWDELHI_PRES NEWDELHI_CI NEWDELHI_DP NEWDELHI_POCI REUNION_LAT REUNION_LON REUNION_TYPE REUNION_WIND REUNION_PRES REUNION_TNUM REUNION_CI REUNION_RMW REUNION_R34_NE REUNION_R34_SE REUNION_R34_SW REUNION_R34_NW REUNION_R50_NE REUNION_R50_SE REUNION_R50_SW REUNION_R50_NW REUNION_R64_NE REUNION_R64_SE REUNION_R64_SW REUNION_R64_NW BOM_LAT BOM_LON BOM_TYPE BOM_WIND BOM_PRES BOM_TNUM BOM_CI BOM_RMW BOM_R34_NE BOM_R34_SE BOM_R34_SW BOM_R34_NW BOM_R50_NE BOM_R50_SE BOM_R50_SW BOM_R50_NW BOM_R64_NE BOM_R64_SE BOM_R64_SW BOM_R64_NW BOM_ROCI BOM_POCI BOM_EYE BOM_POS_METHOD BOM_PRES_METHOD NADI_LAT NADI_LON NADI_CAT NADI_WIND NADI_PRES WELLINGTON_LAT WELLINGTON_LON WELLINGTON_WIND WELLINGTON_PRES DS824_LAT DS824_LON DS824_STAGE DS824_WIND DS824_PRES TD9636_LAT TD9636_LON TD9636_STAGE TD9636_WIND TD9636_PRES TD9635_LAT TD9635_LON TD9635_WIND TD9635_PRES TD9635_ROCI NEUMANN_LAT NEUMANN_LON NEUMANN_CLASS NEUMANN_WIND NEUMANN_PRES MLC_LAT MLC_LON MLC_CLASS MLC_WIND MLC_PRES USA_GUST BOM_GUST BOM_GUST_PER REUNION_GUST REUNION_GUST_PER USA_SEAHGT USA_SEARAD_NE USA_SEARAD_SE USA_SEARAD_SW USA_SEARAD_NW STORM_SPEED STORM_DIR
1943244N25301 1943 58 NA NA NOT_NAMED 1943-09-01 06:00:00 TS 24.5000 -59.5000 60 hurdat_atl main 928 928 O_____________ hurdat_atl AL041943 24.5000 -59.5000 TS 60 0 8 342
1943244N25301 1943 58 NA NA NOT_NAMED 1943-09-01 09:00:00 TS 24.8722 -59.6329 main 954 948 P_____________ AL041943 24.8722 -59.6329 TS 65 1 9 336
1943244N25301 1943 58 NA NA NOT_NAMED 1943-09-01 12:00:00 TS 25.3000 -59.9000 70 hurdat_atl main 969 969 O_____________ hurdat_atl AL041943 25.3000 -59.9000 HU 70 1 12 325
1943244N25301 1943 58 NA NA NOT_NAMED 1943-09-01 15:00:00 TS 25.8204 -60.3770 main 985 985 P_____________ AL041943 25.8204 -60.3770 HU 72 1 14 321
1943244N25301 1943 58 NA NA NOT_NAMED 1943-09-01 18:00:00 TS 26.4000 -60.9000 75 hurdat_atl main 1016 1016 O_____________ hurdat_atl AL041943 26.4000 -60.9000 HU 75 1 14 325
1943244N25301 1943 58 NA NA NOT_NAMED 1943-09-01 21:00:00 TS 26.9924 -61.2953 main 1057 1057 P_____________ AL041943 26.9924 -61.2953 HU 77 1 14 333
1943244N25301 1943 58 NA NA NOT_NAMED 1943-09-02 00:00:00 TS 27.6000 -61.6000 80 hurdat_atl main 1106 1106 O_____________ hurdat_atl AL041943 27.6000 -61.6000 HU 80 1 13 338
1943244N25301 1943 58 NA NA NOT_NAMED 1943-09-02 03:00:00 TS 28.1999 -61.8378 main 1161 1161 P_____________ AL041943 28.1999 -61.8378 HU 80 1 13 344
1943244N25301 1943 58 NA NA NOT_NAMED 1943-09-02 06:00:00 TS 28.8000 -62.0000 80 hurdat_atl main 1218 1218 O_____________ hurdat_atl AL041943 28.8000 -62.0000 HU 80 1 13 349
1943244N25301 1943 58 NA NA NOT_NAMED 1943-09-02 09:00:00 TS 29.4449 -62.1152 main 1279 1279 P_____________ AL041943 29.4449 -62.1152 HU 82 1 12 352
1943244N25301 1943 58 NA NA NOT_NAMED 1943-09-02 12:00:00 TS 30.0000 -62.2000 85 hurdat_atl main 1341 1341 O_____________ hurdat_atl AL041943 30.0000 -62.2000 HU 85 2 9 349
1943244N25301 1943 58 NA NA NOT_NAMED 1943-09-02 15:00:00 TS 30.3600 -62.3150 main 1365 1346 P_____________ AL041943 30.3600 -62.3150 HU 85 2 6 344
1943244N25301 1943 58 NA NA NOT_NAMED 1943-09-02 18:00:00 TS 30.6000 -62.4000 85 hurdat_atl main 1346 1335 O_____________ hurdat_atl AL041943 30.6000 -62.4000 HU 85 2 5 353
1943244N25301 1943 58 NA NA NOT_NAMED 1943-09-02 21:00:00 TS 30.8149 -62.3853 main 1335 1324 P_____________ AL041943 30.8149 -62.3853 HU 87 2 4 0
1943244N25301 1943 58 NA NA NOT_NAMED 1943-09-03 00:00:00 TS 31.0000 -62.4000 90 hurdat_atl main 1324 1297 O_____________ hurdat_atl AL041943 31.0000 -62.4000 HU 90 2 4 334
1943244N25301 1943 58 NA NA NOT_NAMED 1943-09-03 03:00:00 TS 31.2002 -62.5997 main 1297 1270 P_____________ AL041943 31.2002 -62.5997 HU 92 2 5 319
1943244N25301 1943 58 NA NA NOT_NAMED 1943-09-03 06:00:00 TS 31.4000 -62.8000 95 hurdat_atl main 1270 1252 O_____________ hurdat_atl AL041943 31.4000 -62.8000 HU 95 2 5 332
1943244N25301 1943 58 NA NA NOT_NAMED 1943-09-03 09:00:00 TS 31.5999 -62.8525 main 1252 1251 P_____________ AL041943 31.5999 -62.8525 HU 95 2 4 0
1943244N25301 1943 58 NA NA NOT_NAMED 1943-09-03 12:00:00 TS 31.8000 -62.8000 95 hurdat_atl main 1251 1247 O_____________ hurdat_atl AL041943 31.8000 -62.8000 HU 95 2 4 18
1943244N25301 1943 58 NA NA NOT_NAMED 1943-09-03 15:00:00 TS 32.0149 -62.6951 main 1251 1243 P_____________ AL041943 32.0149 -62.6951 HU 97 3 5 32
1943244N25301 1943 58 NA NA NOT_NAMED 1943-09-03 18:00:00 TS 32.2000 -62.5000 100 hurdat_atl main 1248 1243 O_____________ hurdat_atl AL041943 32.2000 -62.5000 HU 100 3 5 52
1943244N25301 1943 58 NA NA NOT_NAMED 1943-09-03 21:00:00 TS 32.3225 -62.2300 main 1253 1248 P_____________ AL041943 32.3225 -62.2300 HU 100 3 5 68
1943244N25301 1943 58 NA NA NOT_NAMED 1943-09-04 00:00:00 TS 32.4000 -61.9000 100 hurdat_atl main 1258 1258 O_____________ hurdat_atl AL041943 32.4000 -61.9000 HU 100 3 6 78
1943244N25301 1943 58 NA NA NOT_NAMED 1943-09-04 03:00:00 TS 32.4501 -61.5349 main 1268 1268 P_____________ AL041943 32.4501 -61.5349 HU 102 3 6 80
1943244N25301 1943 58 NA NA NOT_NAMED 1943-09-04 06:00:00 TS 32.5000 -61.2000 105 hurdat_atl main 1275 1270 O_____________ hurdat_atl AL041943 32.5000 -61.2000 HU 105 3 5 74
1943244N25301 1943 58 NA NA NOT_NAMED 1943-09-04 09:00:00 TS 32.5924 -60.9625 main 1270 1261 P_____________ AL041943 32.5924 -60.9625 HU 105 3 4 59
1943244N25301 1943 58 NA NA NOT_NAMED 1943-09-04 12:00:00 TS 32.7000 -60.8000 105 hurdat_atl main 1264 1256 O_____________ hurdat_atl AL041943 32.7000 -60.8000 HU 105 3 3 53
1943244N25301 1943 58 NA NA NOT_NAMED 1943-09-04 15:00:00 TS 32.7924 -60.6476 main 1259 1248 P_____________ AL041943 32.7924 -60.6476 HU 105 3 3 40
1943244N25301 1943 58 NA NA NOT_NAMED 1943-09-04 18:00:00 TS 32.9000 -60.6000 105 hurdat_atl main 1248 1235 O_____________ hurdat_atl AL041943 32.9000 -60.6000 HU 105 3 3 351
1943244N25301 1943 58 NA NA NOT_NAMED 1943-09-04 21:00:00 TS 33.0425 -60.7049 main 1235 1208 P_____________ AL041943 33.0425 -60.7049 HU 102 3 4 320
1943244N25301 1943 58 NA NA NOT_NAMED 1943-09-05 00:00:00 TS 33.2000 -60.9000 100 hurdat_atl main 1208 1192 O_____________ hurdat_atl AL041943 33.2000 -60.9000 HU 100 3 5 314
1943244N25301 1943 58 NA NA NOT_NAMED 1943-09-05 03:00:00 TS 33.3575 -61.0999 main 1181 1165 P_____________ AL041943 33.3575 -61.0999 HU 97 3 4 312
1943244N25301 1943 58 NA NA NOT_NAMED 1943-09-05 06:00:00 TS 33.5000 -61.3000 95 hurdat_atl main 1165 1152 O_____________ hurdat_atl AL041943 33.5000 -61.3000 HU 95 2 4 310
1943244N25301 1943 58 NA NA NOT_NAMED 1943-09-05 09:00:00 TS 33.6075 -61.4576 main 1150 1136 P_____________ AL041943 33.6075 -61.4576 HU 95 2 3 308
1943244N25301 1943 58 NA NA NOT_NAMED 1943-09-05 12:00:00 TS 33.7000 -61.6000 95 hurdat_atl main 1136 1123 O_____________ hurdat_atl AL041943 33.7000 -61.6000 HU 95 2 3 307
1943244N25301 1943 58 NA NA NOT_NAMED 1943-09-05 15:00:00 TS 33.7925 -61.7501 main 1121 1108 P_____________ AL041943 33.7925 -61.7501 HU 95 2 3 308
1943244N25301 1943 58 NA NA NOT_NAMED 1943-09-05 18:00:00 TS 33.9000 -61.9000 95 hurdat_atl main 1108 1095 O_____________ hurdat_atl AL041943 33.9000 -61.9000 HU 95 2 4 315
1943244N25301 1943 58 NA NA NOT_NAMED 1943-09-05 21:00:00 TS 34.0500 -62.0574 main 1082 1069 P_____________ AL041943 34.0500 -62.0574 HU 95 2 4 321
1943244N25301 1943 58 NA NA NOT_NAMED 1943-09-06 00:00:00 TS 34.2000 -62.2000 95 hurdat_atl main 1069 1056 O_____________ hurdat_atl AL041943 34.2000 -62.2000 HU 95 2 3 321
1943244N25301 1943 58 NA NA NOT_NAMED 1943-09-06 03:00:00 TS 34.3000 -62.3076 main 1056 1043 P_____________ AL041943 34.3000 -62.3076 HU 95 2 3 320
1943244N25301 1943 58 NA NA NOT_NAMED 1943-09-06 06:00:00 TS 34.4000 -62.4000 95 hurdat_atl main 1043 1030 O_____________ hurdat_atl AL041943 34.4000 -62.4000 HU 95 2 3 328
1943244N25301 1943 58 NA NA NOT_NAMED 1943-09-06 09:00:00 TS 34.5500 -62.5000 main 1019 1006 P_____________ AL041943 34.5500 -62.5000 HU 95 2 3 332
1943244N25301 1943 58 NA NA NOT_NAMED 1943-09-06 12:00:00 TS 34.7000 -62.6000 95 hurdat_atl main 1006 993 O_____________ hurdat_atl AL041943 34.7000 -62.6000 HU 95 2 3 328
1943244N25301 1943 58 NA NA NOT_NAMED 1943-09-06 15:00:00 TS 34.8075 -62.7001 main 993 980 P_____________ AL041943 34.8075 -62.7001 HU 95 2 3 320
1943244N25301 1943 58 NA NA NOT_NAMED 1943-09-06 18:00:00 TS 34.9000 -62.8000 95 hurdat_atl main 980 967 O_____________ hurdat_atl AL041943 34.9000 -62.8000 HU 95 2 3 318
1943244N25301 1943 58 NA NA NOT_NAMED 1943-09-06 21:00:00 TS 34.9925 -62.9075 main 967 953 P_____________ AL041943 34.9925 -62.9075 HU 95 2 3 320
1943244N25301 1943 58 NA NA NOT_NAMED 1943-09-07 00:00:00 TS 35.1000 -63.0000 95 hurdat_atl main 953 938 O_____________ hurdat_atl AL041943 35.1000 -63.0000 HU 95 2 3 333
1943244N25301 1943 58 NA NA NOT_NAMED 1943-09-07 03:00:00 TS 35.2425 -63.0575 main 938 920 P_____________ AL041943 35.2425 -63.0575 HU 95 2 3 346
1943244N25301 1943 58 NA NA NOT_NAMED 1943-09-07 06:00:00 TS 35.4000 -63.1000 95 hurdat_atl main 920 910 O_____________ hurdat_atl AL041943 35.4000 -63.1000 HU 95 2 3 344
1943244N25301 1943 58 NA NA NOT_NAMED 1943-09-07 09:00:00 TS 35.5425 -63.1500 main 906 886 P_____________ AL041943 35.5425 -63.1500 HU 95 2 3 346
1943244N25301 1943 58 NA NA NOT_NAMED 1943-09-07 12:00:00 TS 35.7000 -63.2000 95 hurdat_atl main 886 862 O_____________ hurdat_atl AL041943 35.7000 -63.2000 HU 95 2 4 346
1943244N25301 1943 58 NA NA NOT_NAMED 1943-09-07 15:00:00 TS 35.8925 -63.2575 main 862 840 P_____________ AL041943 35.8925 -63.2575 HU 92 2 4 349
1943244N25301 1943 58 NA NA NOT_NAMED 1943-09-07 18:00:00 TS 36.1000 -63.3000 90 hurdat_atl main 840 819 O_____________ hurdat_atl AL041943 36.1000 -63.3000 HU 90 2 4 355
1943244N25301 1943 58 NA NA NOT_NAMED 1943-09-07 21:00:00 TS 36.3000 -63.3150 main 819 797 P_____________ AL041943 36.3000 -63.3150 HU 90 2 4 0
1943244N25301 1943 58 NA NA NOT_NAMED 1943-09-08 00:00:00 TS 36.5000 -63.3000 90 hurdat_atl main 797 775 O_____________ hurdat_atl AL041943 36.5000 -63.3000 HU 90 2 4 7
1943244N25301 1943 58 NA NA NOT_NAMED 1943-09-08 03:00:00 TS 36.6850 -63.2575 main 775 755 P_____________ AL041943 36.6850 -63.2575 HU 90 2 4 11
1943244N25301 1943 58 NA NA NOT_NAMED 1943-09-08 06:00:00 TS 36.9000 -63.2000 90 hurdat_atl main 755 733 O_____________ hurdat_atl AL041943 36.9000 -63.2000 HU 90 2 5 11
1943244N25301 1943 58 NA NA NOT_NAMED 1943-09-08 09:00:00 TS 37.1475 -63.1499 main 736 692 P_____________ AL041943 37.1475 -63.1499 HU 87 2 6 8
1943244N25301 1943 58 NA NA NOT_NAMED 1943-09-08 12:00:00 TS 37.5000 -63.1000 85 hurdat_atl main 692 639 O_____________ hurdat_atl AL041943 37.5000 -63.1000 HU 85 2 8 4
1943244N25301 1943 58 NA NA NOT_NAMED 1943-09-08 15:00:00 TS 37.9824 -63.0791 main 639 578 P_____________ AL041943 37.9824 -63.0791 HU 82 1 11 4
1943244N25301 1943 58 NA NA NOT_NAMED 1943-09-08 18:00:00 TS 38.6000 -63.0000 80 hurdat_atl main 578 521 O_____________ hurdat_atl AL041943 38.6000 -63.0000 HU 80 1 13 9
1943244N25301 1943 58 NA NA NOT_NAMED 1943-09-08 21:00:00 TS 39.2750 -62.8015 main 511 452 P_____________ AL041943 39.2750 -62.8015 HU 77 1 16 14
1943244N25301 1943 58 NA NA NOT_NAMED 1943-09-09 00:00:00 TS 40.1000 -62.5000 75 hurdat_atl main 443 376 O_____________ hurdat_atl AL041943 40.1000 -62.5000 HU 75 1 19 16
1943244N25301 1943 58 NA NA NOT_NAMED 1943-09-09 03:00:00 TS 41.0901 -62.1296 main 372 298 P_____________ AL041943 41.0901 -62.1296 HU 72 1 22 16
1943244N25301 1943 58 NA NA NOT_NAMED 1943-09-09 06:00:00 TS 42.2000 -61.7000 70 hurdat_atl main 288 188 O_____________ hurdat_atl AL041943 42.2000 -61.7000 HU 70 1 23 13
1943244N25301 1943 58 NA NA NOT_NAMED 1943-09-09 09:00:00 TS 43.3310 -61.4257 main 188 90 P_____________ AL041943 43.3310 -61.4257 HU 65 1 24 16
1943244N25301 1943 58 NA NA NOT_NAMED 1943-09-09 12:00:00 TS 44.5000 -60.8000 60 hurdat_atl main 81 54 O_____________ hurdat_atl AL041943 44.5000 -60.8000 TS 60 0 27 33
1943244N25301 1943 58 NA NA NOT_NAMED 1943-09-09 15:00:00 TS 45.6232 -59.3446 main 65 62 P_____________ AL041943 45.6232 -59.3446 TS 57 0 33 45
1943244N25301 1943 58 NA NA NOT_NAMED 1943-09-09 18:00:00 TS 46.8000 -57.5000 55 hurdat_atl main 88 0 O_____________ hurdat_atl AL041943 46.8000 -57.5000 TS 55 0 35 45
1943244N25301 1943 58 NA NA NOT_NAMED 1943-09-09 21:00:00 TS 48.1116 -55.7264 main 0 0 P_____________ AL041943 48.1116 -55.7264 TS 50 0 36 41
1943244N25301 1943 58 NA NA NOT_NAMED 1943-09-10 00:00:00 ET 49.5000 -54.0000 45 hurdat_atl main 11 O_____________ hurdat_atl AL041943 49.5000 -54.0000 EX 45 -4 36 39

IBTrACS Databaseについて

本データベースは、米国NOAAが公開する1842年以降の世界の熱帯低気圧のベストトラックデータアーカイブInternational Best Track Archive for Climate Stewardship (IBTrACS)を、ウェブで閲覧しやすい形式に変換したものです。

最終更新日:2021-10-27